Terminal Aerodrome Forecast
Issued by NWS

Home | Current Version | Previous Version | Graphics & Text | Print | Product List | Glossary On
Versions: 1 2 3 4 5 6 7 8 9 10 11 12 13 14 15
246
FTUS43 KBIS 041740
TAFMOT
TAF
KMOT 041740Z 0418/0518 21009KT P6SM SCT020 OVC090
     FM042300 16007KT P6SM BKN140
     FM050800 29004KT P6SM OVC040
     FM051400 31008KT P6SM OVC050=

USA.gov is the U.S. government's official web portal to all federal, state and local government web resources and services.